sensor_id;sensor_type;location;lat;lon;timestamp;P1;durP1;ratioP1;P2;durP2;ratioP2
12135;SDS011;6131;56.420;15.548;2023-06-26T00:01:16;5.67;;;5.10;;
12135;SDS011;6131;56.420;15.548;2023-06-26T00:03:45;6.57;;;5.87;;
12135;SDS011;6131;56.420;15.548;2023-06-26T00:06:11;6.23;;;5.63;;
12135;SDS011;6131;56.420;15.548;2023-06-26T00:08:37;7.00;;;6.30;;
12135;SDS011;6131;56.420;15.548;2023-06-26T00:11:03;7.37;;;5.80;;
12135;SDS011;6131;56.420;15.548;2023-06-26T00:13:30;6.67;;;5.97;;
12135;SDS011;6131;56.420;15.548;2023-06-26T00:15:55;6.23;;;5.63;;
12135;SDS011;6131;56.420;15.548;2023-06-26T00:18:22;6.03;;;5.43;;
12135;SDS011;6131;56.420;15.548;2023-06-26T00:20:48;7.27;;;5.90;;
12135;SDS011;6131;56.420;15.548;2023-06-26T00:23:16;7.27;;;5.93;;
12135;SDS011;6131;56.420;15.548;2023-06-26T00:25:42;6.63;;;5.93;;
12135;SDS011;6131;56.420;15.548;2023-06-26T00:28:09;6.40;;;5.80;;
12135;SDS011;6131;56.420;15.548;2023-06-26T00:30:35;7.07;;;6.17;;
12135;SDS011;6131;56.420;15.548;2023-06-26T00:33:01;6.23;;;5.60;;
12135;SDS011;6131;56.420;15.548;2023-06-26T00:35:27;7.43;;;6.00;;
12135;SDS011;6131;56.420;15.548;2023-06-26T00:37:53;9.37;;;6.50;;
12135;SDS011;6131;56.420;15.548;2023-06-26T00:40:19;6.97;;;5.50;;
12135;SDS011;6131;56.420;15.548;2023-06-26T00:42:45;6.20;;;5.60;;
12135;SDS011;6131;56.420;15.548;2023-06-26T00:45:11;7.67;;;6.03;;
12135;SDS011;6131;56.420;15.548;2023-06-26T00:47:37;7.00;;;6.10;;
12135;SDS011;6131;56.420;15.548;2023-06-26T00:50:03;8.03;;;5.83;;
12135;SDS011;6131;56.420;15.548;2023-06-26T00:52:29;6.10;;;5.50;;
12135;SDS011;6131;56.420;15.548;2023-06-26T00:54:56;8.10;;;5.70;;
12135;SDS011;6131;56.420;15.548;2023-06-26T00:57:22;6.30;;;5.70;;
12135;SDS011;6131;56.420;15.548;2023-06-26T00:59:48;7.97;;;6.50;;
12135;SDS011;6131;56.420;15.548;2023-06-26T01:02:14;6.17;;;5.50;;
12135;SDS011;6131;56.420;15.548;2023-06-26T01:04:44;6.70;;;6.10;;
12135;SDS011;6131;56.420;15.548;2023-06-26T01:07:11;9.33;;;6.00;;
12135;SDS011;6131;56.420;15.548;2023-06-26T01:09:38;6.80;;;6.10;;
12135;SDS011;6131;56.420;15.548;2023-06-26T01:12:04;9.50;;;6.30;;
12135;SDS011;6131;56.420;15.548;2023-06-26T01:14:30;7.37;;;5.73;;
12135;SDS011;6131;56.420;15.548;2023-06-26T01:16:57;6.50;;;5.60;;
12135;SDS011;6131;56.420;15.548;2023-06-26T01:19:24;7.50;;;5.40;;
12135;SDS011;6131;56.420;15.548;2023-06-26T01:22:02;9.80;;;6.93;;
12135;SDS011;6131;56.420;15.548;2023-06-26T01:24:33;8.30;;;6.00;;
12135;SDS011;6131;56.420;15.548;2023-06-26T01:27:02;11.27;;;6.50;;
12135;SDS011;6131;56.420;15.548;2023-06-26T01:29:30;8.97;;;6.23;;
12135;SDS011;6131;56.420;15.548;2023-06-26T01:31:56;9.33;;;6.57;;
12135;SDS011;6131;56.420;15.548;2023-06-26T01:34:22;12.27;;;7.07;;
12135;SDS011;6131;56.420;15.548;2023-06-26T01:36:48;8.30;;;6.93;;
12135;SDS011;6131;56.420;15.548;2023-06-26T01:39:14;9.00;;;6.13;;
12135;SDS011;6131;56.420;15.548;2023-06-26T01:41:41;6.57;;;5.90;;
12135;SDS011;6131;56.420;15.548;2023-06-26T01:46:45;8.97;;;5.97;;
12135;SDS011;6131;56.420;15.548;2023-06-26T01:51:47;7.30;;;6.07;;
12135;SDS011;6131;56.420;15.548;2023-06-26T01:54:17;6.63;;;5.40;;
12135;SDS011;6131;56.420;15.548;2023-06-26T01:56:45;6.30;;;5.57;;
12135;SDS011;6131;56.420;15.548;2023-06-26T01:59:11;7.00;;;6.30;;
12135;SDS011;6131;56.420;15.548;2023-06-26T02:01:41;9.00;;;6.53;;
12135;SDS011;6131;56.420;15.548;2023-06-26T02:04:07;21.50;;;9.40;;
12135;SDS011;6131;56.420;15.548;2023-06-26T02:06:33;13.43;;;9.03;;
12135;SDS011;6131;56.420;15.548;2023-06-26T02:08:59;12.17;;;8.77;;
12135;SDS011;6131;56.420;15.548;2023-06-26T02:11:25;11.83;;;8.30;;
12135;SDS011;6131;56.420;15.548;2023-06-26T02:13:51;13.53;;;8.67;;
12135;SDS011;6131;56.420;15.548;2023-06-26T02:16:17;16.17;;;9.67;;
12135;SDS011;6131;56.420;15.548;2023-06-26T02:18:43;11.40;;;9.03;;
12135;SDS011;6131;56.420;15.548;2023-06-26T02:21:09;11.27;;;7.70;;
12135;SDS011;6131;56.420;15.548;2023-06-26T02:23:35;10.73;;;7.70;;
12135;SDS011;6131;56.420;15.548;2023-06-26T02:26:02;8.70;;;7.27;;
12135;SDS011;6131;56.420;15.548;2023-06-26T02:28:28;8.53;;;7.00;;
12135;SDS011;6131;56.420;15.548;2023-06-26T02:30:55;9.87;;;6.93;;
12135;SDS011;6131;56.420;15.548;2023-06-26T02:33:22;11.53;;;7.43;;
12135;SDS011;6131;56.420;15.548;2023-06-26T02:35:48;14.93;;;9.03;;
12135;SDS011;6131;56.420;15.548;2023-06-26T02:38:15;12.83;;;8.07;;
12135;SDS011;6131;56.420;15.548;2023-06-26T02:40:41;13.30;;;8.43;;
12135;SDS011;6131;56.420;15.548;2023-06-26T02:43:07;11.33;;;9.00;;
12135;SDS011;6131;56.420;15.548;2023-06-26T02:45:33;14.43;;;8.63;;
12135;SDS011;6131;56.420;15.548;2023-06-26T02:47:59;11.17;;;8.17;;
12135;SDS011;6131;56.420;15.548;2023-06-26T02:50:25;12.43;;;8.57;;
12135;SDS011;6131;56.420;15.548;2023-06-26T02:52:51;13.67;;;8.83;;
12135;SDS011;6131;56.420;15.548;2023-06-26T02:55:18;17.10;;;10.63;;
12135;SDS011;6131;56.420;15.548;2023-06-26T02:57:44;16.77;;;10.50;;
12135;SDS011;6131;56.420;15.548;2023-06-26T03:00:11;17.17;;;10.57;;
12135;SDS011;6131;56.420;15.548;2023-06-26T03:02:37;28.87;;;11.77;;
12135;SDS011;6131;56.420;15.548;2023-06-26T03:05:03;16.77;;;10.40;;
12135;SDS011;6131;56.420;15.548;2023-06-26T03:07:29;17.27;;;10.30;;
12135;SDS011;6131;56.420;15.548;2023-06-26T03:09:55;26.73;;;11.50;;
12135;SDS011;6131;56.420;15.548;2023-06-26T03:12:21;17.70;;;10.57;;
12135;SDS011;6131;56.420;15.548;2023-06-26T03:14:47;19.03;;;11.20;;
12135;SDS011;6131;56.420;15.548;2023-06-26T03:17:13;17.03;;;10.23;;
12135;SDS011;6131;56.420;15.548;2023-06-26T03:19:39;17.57;;;10.60;;
12135;SDS011;6131;56.420;15.548;2023-06-26T03:22:05;13.97;;;9.60;;
12135;SDS011;6131;56.420;15.548;2023-06-26T03:24:31;16.57;;;10.87;;
12135;SDS011;6131;56.420;15.548;2023-06-26T03:26:58;11.80;;;9.50;;
12135;SDS011;6131;56.420;15.548;2023-06-26T03:29:25;13.33;;;8.43;;
12135;SDS011;6131;56.420;15.548;2023-06-26T03:31:51;13.30;;;9.53;;
12135;SDS011;6131;56.420;15.548;2023-06-26T03:34:17;15.07;;;9.40;;
12135;SDS011;6131;56.420;15.548;2023-06-26T03:36:43;13.23;;;9.20;;
12135;SDS011;6131;56.420;15.548;2023-06-26T03:39:09;11.40;;;8.93;;
12135;SDS011;6131;56.420;15.548;2023-06-26T03:41:35;13.27;;;9.17;;
12135;SDS011;6131;56.420;15.548;2023-06-26T03:44:00;16.50;;;9.43;;
12135;SDS011;6131;56.420;15.548;2023-06-26T03:46:28;9.60;;;8.17;;
12135;SDS011;6131;56.420;15.548;2023-06-26T03:48:54;9.97;;;8.20;;
12135;SDS011;6131;56.420;15.548;2023-06-26T03:51:20;11.53;;;8.20;;
12135;SDS011;6131;56.420;15.548;2023-06-26T03:53:46;8.90;;;7.30;;
12135;SDS011;6131;56.420;15.548;2023-06-26T03:56:12;9.77;;;7.63;;
12135;SDS011;6131;56.420;15.548;2023-06-26T03:58:39;8.67;;;7.70;;
12135;SDS011;6131;56.420;15.548;2023-06-26T04:01:05;9.60;;;8.60;;
12135;SDS011;6131;56.420;15.548;2023-06-26T04:03:31;13.00;;;8.90;;
12135;SDS011;6131;56.420;15.548;2023-06-26T04:05:57;10.57;;;9.17;;
12135;SDS011;6131;56.420;15.548;2023-06-26T04:08:23;11.53;;;9.13;;
12135;SDS011;6131;56.420;15.548;2023-06-26T04:10:52;12.63;;;9.50;;
12135;SDS011;6131;56.420;15.548;2023-06-26T04:13:20;11.50;;;9.00;;
12135;SDS011;6131;56.420;15.548;2023-06-26T04:15:46;16.60;;;9.87;;
12135;SDS011;6131;56.420;15.548;2023-06-26T04:18:12;12.73;;;9.20;;
12135;SDS011;6131;56.420;15.548;2023-06-26T04:20:38;10.23;;;8.80;;
12135;SDS011;6131;56.420;15.548;2023-06-26T04:23:05;13.53;;;9.20;;
12135;SDS011;6131;56.420;15.548;2023-06-26T04:25:31;14.97;;;9.80;;
12135;SDS011;6131;56.420;15.548;2023-06-26T04:27:56;16.97;;;10.97;;
12135;SDS011;6131;56.420;15.548;2023-06-26T04:30:22;15.40;;;10.97;;
12135;SDS011;6131;56.420;15.548;2023-06-26T04:32:48;14.73;;;10.57;;
12135;SDS011;6131;56.420;15.548;2023-06-26T04:35:14;13.37;;;10.23;;
12135;SDS011;6131;56.420;15.548;2023-06-26T04:37:40;15.10;;;10.73;;
12135;SDS011;6131;56.420;15.548;2023-06-26T04:40:07;15.63;;;10.97;;
12135;SDS011;6131;56.420;15.548;2023-06-26T04:42:34;14.40;;;10.50;;
12135;SDS011;6131;56.420;15.548;2023-06-26T04:45:00;11.60;;;9.30;;
12135;SDS011;6131;56.420;15.548;2023-06-26T04:47:27;13.13;;;9.73;;
12135;SDS011;6131;56.420;15.548;2023-06-26T04:49:53;15.37;;;10.63;;
12135;SDS011;6131;56.420;15.548;2023-06-26T04:52:20;13.77;;;10.17;;
12135;SDS011;6131;56.420;15.548;2023-06-26T04:54:46;14.10;;;10.17;;
12135;SDS011;6131;56.420;15.548;2023-06-26T04:57:12;12.87;;;9.73;;
12135;SDS011;6131;56.420;15.548;2023-06-26T04:59:39;13.40;;;9.97;;
12135;SDS011;6131;56.420;15.548;2023-06-26T05:02:05;12.40;;;9.10;;
12135;SDS011;6131;56.420;15.548;2023-06-26T05:04:31;12.60;;;8.90;;
12135;SDS011;6131;56.420;15.548;2023-06-26T05:06:57;9.60;;;7.10;;
12135;SDS011;6131;56.420;15.548;2023-06-26T05:09:23;8.10;;;6.20;;
12135;SDS011;6131;56.420;15.548;2023-06-26T05:11:49;7.30;;;5.83;;
12135;SDS011;6131;56.420;15.548;2023-06-26T05:14:15;6.33;;;5.17;;
12135;SDS011;6131;56.420;15.548;2023-06-26T05:16:41;5.93;;;4.53;;
12135;SDS011;6131;56.420;15.548;2023-06-26T05:19:07;7.27;;;4.97;;
12135;SDS011;6131;56.420;15.548;2023-06-26T05:21:34;5.77;;;4.50;;
12135;SDS011;6131;56.420;15.548;2023-06-26T05:24:00;8.07;;;4.97;;
12135;SDS011;6131;56.420;15.548;2023-06-26T05:26:26;5.50;;;4.60;;
12135;SDS011;6131;56.420;15.548;2023-06-26T05:28:53;5.73;;;4.50;;
12135;SDS011;6131;56.420;15.548;2023-06-26T05:31:19;6.37;;;5.00;;
12135;SDS011;6131;56.420;15.548;2023-06-26T05:33:45;7.27;;;5.73;;
12135;SDS011;6131;56.420;15.548;2023-06-26T05:36:12;6.30;;;5.57;;
12135;SDS011;6131;56.420;15.548;2023-06-26T05:38:39;6.73;;;6.00;;
12135;SDS011;6131;56.420;15.548;2023-06-26T05:41:05;6.57;;;5.70;;
12135;SDS011;6131;56.420;15.548;2023-06-26T05:43:31;4.60;;;4.07;;
12135;SDS011;6131;56.420;15.548;2023-06-26T05:45:57;4.80;;;4.30;;
12135;SDS011;6131;56.420;15.548;2023-06-26T05:48:23;5.23;;;4.73;;
12135;SDS011;6131;56.420;15.548;2023-06-26T05:50:49;6.40;;;5.80;;
12135;SDS011;6131;56.420;15.548;2023-06-26T05:53:15;6.97;;;6.27;;
12135;SDS011;6131;56.420;15.548;2023-06-26T05:55:41;7.70;;;6.70;;
12135;SDS011;6131;56.420;15.548;2023-06-26T05:58:09;8.97;;;7.67;;
12135;SDS011;6131;56.420;15.548;2023-06-26T06:00:36;6.27;;;5.67;;
12135;SDS011;6131;56.420;15.548;2023-06-26T06:03:02;7.93;;;7.10;;
12135;SDS011;6131;56.420;15.548;2023-06-26T06:05:28;8.83;;;8.03;;
12135;SDS011;6131;56.420;15.548;2023-06-26T06:07:54;8.30;;;7.50;;
12135;SDS011;6131;56.420;15.548;2023-06-26T06:10:20;6.50;;;5.90;;
12135;SDS011;6131;56.420;15.548;2023-06-26T06:12:46;8.53;;;7.73;;
12135;SDS011;6131;56.420;15.548;2023-06-26T06:15:12;9.00;;;8.10;;
12135;SDS011;6131;56.420;15.548;2023-06-26T06:17:38;8.10;;;7.00;;
12135;SDS011;6131;56.420;15.548;2023-06-26T06:20:04;10.10;;;9.10;;
12135;SDS011;6131;56.420;15.548;2023-06-26T06:22:31;7.13;;;6.33;;
12135;SDS011;6131;56.420;15.548;2023-06-26T06:24:57;10.00;;;9.00;;
12135;SDS011;6131;56.420;15.548;2023-06-26T06:27:23;10.83;;;8.17;;
12135;SDS011;6131;56.420;15.548;2023-06-26T06:29:49;8.33;;;7.53;;
12135;SDS011;6131;56.420;15.548;2023-06-26T06:32:15;8.00;;;7.17;;
12135;SDS011;6131;56.420;15.548;2023-06-26T06:34:41;8.63;;;7.50;;
12135;SDS011;6131;56.420;15.548;2023-06-26T06:37:07;7.13;;;6.43;;
12135;SDS011;6131;56.420;15.548;2023-06-26T06:39:33;6.53;;;5.85;;
12135;SDS011;6131;56.420;15.548;2023-06-26T06:41:59;6.93;;;6.28;;
12135;SDS011;6131;56.420;15.548;2023-06-26T06:44:25;6.93;;;6.22;;
12135;SDS011;6131;56.420;15.548;2023-06-26T06:46:51;7.20;;;5.70;;
12135;SDS011;6131;56.420;15.548;2023-06-26T06:49:18;6.40;;;5.72;;
12135;SDS011;6131;56.420;15.548;2023-06-26T06:51:44;6.75;;;5.75;;
12135;SDS011;6131;56.420;15.548;2023-06-26T06:54:10;6.35;;;5.70;;
12135;SDS011;6131;56.420;15.548;2023-06-26T06:56:36;7.57;;;5.68;;
12135;SDS011;6131;56.420;15.548;2023-06-26T06:59:02;7.05;;;5.38;;
12135;SDS011;6131;56.420;15.548;2023-06-26T07:01:28;8.25;;;5.28;;
12135;SDS011;6131;56.420;15.548;2023-06-26T07:03:54;5.78;;;5.28;;
12135;SDS011;6131;56.420;15.548;2023-06-26T07:06:20;5.68;;;5.18;;
12135;SDS011;6131;56.420;15.548;2023-06-26T07:08:46;8.63;;;5.43;;
12135;SDS011;6131;56.420;15.548;2023-06-26T07:11:12;7.18;;;5.35;;
12135;SDS011;6131;56.420;15.548;2023-06-26T07:13:38;5.90;;;5.30;;
12135;SDS011;6131;56.420;15.548;2023-06-26T07:16:04;6.60;;;5.50;;
12135;SDS011;6131;56.420;15.548;2023-06-26T07:18:30;5.43;;;4.93;;
12135;SDS011;6131;56.420;15.548;2023-06-26T07:20:56;5.95;;;5.15;;
12135;SDS011;6131;56.420;15.548;2023-06-26T07:23:22;5.60;;;4.90;;
12135;SDS011;6131;56.420;15.548;2023-06-26T07:25:48;5.15;;;4.68;;
12135;SDS011;6131;56.420;15.548;2023-06-26T07:28:14;5.72;;;4.95;;
12135;SDS011;6131;56.420;15.548;2023-06-26T07:30:40;7.03;;;5.60;;
12135;SDS011;6131;56.420;15.548;2023-06-26T07:33:06;5.40;;;4.80;;
12135;SDS011;6131;56.420;15.548;2023-06-26T07:35:33;7.60;;;5.68;;
12135;SDS011;6131;56.420;15.548;2023-06-26T07:37:59;5.78;;;4.90;;
12135;SDS011;6131;56.420;15.548;2023-06-26T07:40:25;8.15;;;5.60;;
12135;SDS011;6131;56.420;15.548;2023-06-26T07:42:52;5.97;;;5.35;;
12135;SDS011;6131;56.420;15.548;2023-06-26T07:45:19;7.82;;;5.97;;
12135;SDS011;6131;56.420;15.548;2023-06-26T07:47:45;11.18;;;5.85;;
12135;SDS011;6131;56.420;15.548;2023-06-26T07:50:11;8.00;;;4.93;;
12135;SDS011;6131;56.420;15.548;2023-06-26T07:52:37;5.57;;;5.05;;
12135;SDS011;6131;56.420;15.548;2023-06-26T07:55:03;6.72;;;4.50;;
12135;SDS011;6131;56.420;15.548;2023-06-26T07:57:29;5.57;;;4.60;;
12135;SDS011;6131;56.420;15.548;2023-06-26T07:59:57;7.28;;;5.05;;
12135;SDS011;6131;56.420;15.548;2023-06-26T08:02:23;5.53;;;4.93;;
12135;SDS011;6131;56.420;15.548;2023-06-26T08:04:49;5.68;;;5.18;;
12135;SDS011;6131;56.420;15.548;2023-06-26T08:07:15;7.07;;;5.50;;
12135;SDS011;6131;56.420;15.548;2023-06-26T08:09:41;6.70;;;5.18;;
12135;SDS011;6131;56.420;15.548;2023-06-26T08:12:07;5.32;;;4.82;;
12135;SDS011;6131;56.420;15.548;2023-06-26T08:14:33;5.72;;;4.60;;
12135;SDS011;6131;56.420;15.548;2023-06-26T08:16:59;5.75;;;4.93;;
12135;SDS011;6131;56.420;15.548;2023-06-26T08:19:25;5.28;;;4.85;;
12135;SDS011;6131;56.420;15.548;2023-06-26T08:21:51;5.45;;;4.95;;
12135;SDS011;6131;56.420;15.548;2023-06-26T08:24:17;5.47;;;4.70;;
12135;SDS011;6131;56.420;15.548;2023-06-26T08:26:44;5.72;;;4.38;;
12135;SDS011;6131;56.420;15.548;2023-06-26T08:29:11;5.50;;;4.72;;
12135;SDS011;6131;56.420;15.548;2023-06-26T08:31:37;5.40;;;4.57;;
12135;SDS011;6131;56.420;15.548;2023-06-26T08:34:03;5.18;;;3.97;;
12135;SDS011;6131;56.420;15.548;2023-06-26T08:36:30;5.50;;;4.85;;
12135;SDS011;6131;56.420;15.548;2023-06-26T08:38:56;6.95;;;4.43;;
12135;SDS011;6131;56.420;15.548;2023-06-26T08:41:23;6.30;;;4.22;;
12135;SDS011;6131;56.420;15.548;2023-06-26T08:43:50;7.60;;;4.90;;
12135;SDS011;6131;56.420;15.548;2023-06-26T08:46:19;5.35;;;4.80;;
12135;SDS011;6131;56.420;15.548;2023-06-26T08:48:48;6.88;;;4.88;;
12135;SDS011;6131;56.420;15.548;2023-06-26T08:51:16;5.32;;;4.75;;
12135;SDS011;6131;56.420;15.548;2023-06-26T08:53:43;4.82;;;4.32;;
12135;SDS011;6131;56.420;15.548;2023-06-26T08:56:15;8.10;;;4.68;;
12135;SDS011;6131;56.420;15.548;2023-06-26T08:58:42;5.55;;;4.68;;
12135;SDS011;6131;56.420;15.548;2023-06-26T09:01:08;6.22;;;4.32;;
12135;SDS011;6131;56.420;15.548;2023-06-26T09:03:35;5.00;;;4.13;;
12135;SDS011;6131;56.420;15.548;2023-06-26T09:06:01;4.18;;;3.78;;
12135;SDS011;6131;56.420;15.548;2023-06-26T09:08:28;4.70;;;4.00;;
12135;SDS011;6131;56.420;15.548;2023-06-26T09:10:54;4.40;;;4.00;;
12135;SDS011;6131;56.420;15.548;2023-06-26T09:13:20;4.50;;;4.10;;
12135;SDS011;6131;56.420;15.548;2023-06-26T09:15:47;5.65;;;3.97;;
12135;SDS011;6131;56.420;15.548;2023-06-26T09:18:13;4.00;;;3.60;;
12135;SDS011;6131;56.420;15.548;2023-06-26T09:20:39;3.92;;;3.53;;
12135;SDS011;6131;56.420;15.548;2023-06-26T09:23:05;4.10;;;3.70;;
12135;SDS011;6131;56.420;15.548;2023-06-26T09:25:33;6.97;;;3.53;;
12135;SDS011;6131;56.420;15.548;2023-06-26T09:27:59;3.97;;;3.50;;
12135;SDS011;6131;56.420;15.548;2023-06-26T09:30:25;3.85;;;2.80;;
12135;SDS011;6131;56.420;15.548;2023-06-26T09:32:51;3.50;;;3.20;;
12135;SDS011;6131;56.420;15.548;2023-06-26T09:35:19;3.40;;;3.00;;
12135;SDS011;6131;56.420;15.548;2023-06-26T09:37:45;4.05;;;3.35;;
12135;SDS011;6131;56.420;15.548;2023-06-26T09:40:13;3.60;;;3.20;;
12135;SDS011;6131;56.420;15.548;2023-06-26T09:42:39;4.65;;;3.10;;
12135;SDS011;6131;56.420;15.548;2023-06-26T09:45:06;3.60;;;3.30;;
12135;SDS011;6131;56.420;15.548;2023-06-26T09:47:33;3.85;;;3.55;;
12135;SDS011;6131;56.420;15.548;2023-06-26T09:50:02;3.63;;;3.28;;
12135;SDS011;6131;56.420;15.548;2023-06-26T09:52:28;3.70;;;3.40;;
12135;SDS011;6131;56.420;15.548;2023-06-26T09:55:08;6.28;;;3.40;;
12135;SDS011;6131;56.420;15.548;2023-06-26T09:57:34;4.07;;;3.50;;
12135;SDS011;6131;56.420;15.548;2023-06-26T10:00:04;3.42;;;3.10;;
12135;SDS011;6131;56.420;15.548;2023-06-26T10:02:33;3.67;;;2.97;;
12135;SDS011;6131;56.420;15.548;2023-06-26T10:04:59;4.93;;;2.90;;
12135;SDS011;6131;56.420;15.548;2023-06-26T10:07:25;3.55;;;3.03;;
12135;SDS011;6131;56.420;15.548;2023-06-26T10:09:52;3.22;;;2.80;;
12135;SDS011;6131;56.420;15.548;2023-06-26T10:12:20;4.15;;;3.15;;
12135;SDS011;6131;56.420;15.548;2023-06-26T10:14:47;2.80;;;2.60;;
12135;SDS011;6131;56.420;15.548;2023-06-26T10:17:15;3.60;;;3.17;;
12135;SDS011;6131;56.420;15.548;2023-06-26T10:19:43;3.05;;;2.70;;
12135;SDS011;6131;56.420;15.548;2023-06-26T10:22:11;3.03;;;2.50;;
12135;SDS011;6131;56.420;15.548;2023-06-26T10:24:37;2.80;;;2.50;;
12135;SDS011;6131;56.420;15.548;2023-06-26T10:27:07;5.32;;;3.33;;
12135;SDS011;6131;56.420;15.548;2023-06-26T10:29:34;6.18;;;3.15;;
12135;SDS011;6131;56.420;15.548;2023-06-26T10:32:01;3.65;;;3.13;;
12135;SDS011;6131;56.420;15.548;2023-06-26T10:34:29;4.10;;;2.92;;
12135;SDS011;6131;56.420;15.548;2023-06-26T10:37:02;3.45;;;2.90;;
12135;SDS011;6131;56.420;15.548;2023-06-26T10:39:50;2.33;;;2.03;;
12135;SDS011;6131;56.420;15.548;2023-06-26T10:42:17;4.57;;;2.60;;
12135;SDS011;6131;56.420;15.548;2023-06-26T10:44:45;3.13;;;2.63;;
12135;SDS011;6131;56.420;15.548;2023-06-26T10:47:11;2.78;;;2.58;;
12135;SDS011;6131;56.420;15.548;2023-06-26T10:49:38;2.80;;;2.40;;
12135;SDS011;6131;56.420;15.548;2023-06-26T10:52:04;3.33;;;2.60;;
12135;SDS011;6131;56.420;15.548;2023-06-26T10:54:31;4.82;;;2.85;;
12135;SDS011;6131;56.420;15.548;2023-06-26T10:56:58;2.70;;;2.50;;
12135;SDS011;6131;56.420;15.548;2023-06-26T10:59:28;3.53;;;2.60;;
12135;SDS011;6131;56.420;15.548;2023-06-26T11:01:54;3.00;;;2.70;;
12135;SDS011;6131;56.420;15.548;2023-06-26T11:07:15;2.97;;;2.67;;
12135;SDS011;6131;56.420;15.548;2023-06-26T11:15:02;5.65;;;2.67;;
12135;SDS011;6131;56.420;15.548;2023-06-26T11:17:28;3.17;;;2.00;;
12135;SDS011;6131;56.420;15.548;2023-06-26T11:19:54;3.35;;;2.15;;
12135;SDS011;6131;56.420;15.548;2023-06-26T11:22:21;2.28;;;2.08;;
12135;SDS011;6131;56.420;15.548;2023-06-26T11:24:47;3.17;;;2.15;;
12135;SDS011;6131;56.420;15.548;2023-06-26T11:27:14;2.25;;;2.05;;
12135;SDS011;6131;56.420;15.548;2023-06-26T11:29:46;2.47;;;1.83;;
12135;SDS011;6131;56.420;15.548;2023-06-26T11:32:13;3.03;;;2.30;;
12135;SDS011;6131;56.420;15.548;2023-06-26T11:34:39;2.10;;;1.90;;
12135;SDS011;6131;56.420;15.548;2023-06-26T11:37:07;2.40;;;2.00;;
12135;SDS011;6131;56.420;15.548;2023-06-26T11:39:34;2.53;;;2.33;;
12135;SDS011;6131;56.420;15.548;2023-06-26T11:42:02;2.88;;;2.38;;
12135;SDS011;6131;56.420;15.548;2023-06-26T11:44:31;2.67;;;2.13;;
12135;SDS011;6131;56.420;15.548;2023-06-26T11:46:58;2.67;;;2.28;;
12135;SDS011;6131;56.420;15.548;2023-06-26T11:49:24;2.60;;;2.30;;
12135;SDS011;6131;56.420;15.548;2023-06-26T11:51:52;3.97;;;2.40;;
12135;SDS011;6131;56.420;15.548;2023-06-26T11:54:23;2.60;;;2.40;;
12135;SDS011;6131;56.420;15.548;2023-06-26T11:56:57;4.10;;;2.45;;
12135;SDS011;6131;56.420;15.548;2023-06-26T11:59:23;2.50;;;2.30;;
12135;SDS011;6131;56.420;15.548;2023-06-26T12:01:50;3.30;;;2.38;;
12135;SDS011;6131;56.420;15.548;2023-06-26T12:04:17;2.10;;;1.90;;
12135;SDS011;6131;56.420;15.548;2023-06-26T12:06:52;2.38;;;2.17;;
12135;SDS011;6131;56.420;15.548;2023-06-26T12:09:22;2.22;;;2.00;;
12135;SDS011;6131;56.420;15.548;2023-06-26T12:11:51;2.30;;;2.10;;
12135;SDS011;6131;56.420;15.548;2023-06-26T12:14:17;2.53;;;2.33;;
12135;SDS011;6131;56.420;15.548;2023-06-26T12:16:45;2.42;;;2.22;;
12135;SDS011;6131;56.420;15.548;2023-06-26T12:19:11;3.28;;;2.17;;
12135;SDS011;6131;56.420;15.548;2023-06-26T12:24:07;3.00;;;2.20;;
12135;SDS011;6131;56.420;15.548;2023-06-26T12:26:33;6.78;;;2.38;;
12135;SDS011;6131;56.420;15.548;2023-06-26T12:31:30;2.30;;;1.90;;
12135;SDS011;6131;56.420;15.548;2023-06-26T12:33:57;2.58;;;2.22;;
12135;SDS011;6131;56.420;15.548;2023-06-26T12:36:23;2.83;;;2.53;;
12135;SDS011;6131;56.420;15.548;2023-06-26T12:38:49;2.83;;;2.20;;
12135;SDS011;6131;56.420;15.548;2023-06-26T12:41:16;3.38;;;2.33;;
12135;SDS011;6131;56.420;15.548;2023-06-26T12:43:45;2.30;;;2.10;;
12135;SDS011;6131;56.420;15.548;2023-06-26T12:46:11;3.05;;;2.30;;
12135;SDS011;6131;56.420;15.548;2023-06-26T12:48:40;2.92;;;2.17;;
12135;SDS011;6131;56.420;15.548;2023-06-26T12:51:12;2.42;;;2.20;;
12135;SDS011;6131;56.420;15.548;2023-06-26T12:53:38;3.50;;;2.47;;
12135;SDS011;6131;56.420;15.548;2023-06-26T12:56:05;2.83;;;2.33;;
12135;SDS011;6131;56.420;15.548;2023-06-26T12:58:32;2.67;;;2.10;;
12135;SDS011;6131;56.420;15.548;2023-06-26T13:00:58;3.10;;;2.15;;
12135;SDS011;6131;56.420;15.548;2023-06-26T13:03:24;3.45;;;2.58;;
12135;SDS011;6131;56.420;15.548;2023-06-26T13:05:50;2.60;;;2.30;;
12135;SDS011;6131;56.420;15.548;2023-06-26T13:08:16;3.22;;;2.15;;
12135;SDS011;6131;56.420;15.548;2023-06-26T13:10:43;3.30;;;2.22;;
12135;SDS011;6131;56.420;15.548;2023-06-26T13:13:11;3.78;;;3.38;;
12135;SDS011;6131;56.420;15.548;2023-06-26T13:15:37;2.90;;;2.30;;
12135;SDS011;6131;56.420;15.548;2023-06-26T13:18:03;2.55;;;2.35;;
12135;SDS011;6131;56.420;15.548;2023-06-26T13:20:29;3.17;;;2.28;;
12135;SDS011;6131;56.420;15.548;2023-06-26T13:22:55;3.17;;;2.40;;
12135;SDS011;6131;56.420;15.548;2023-06-26T13:25:23;2.63;;;2.08;;
12135;SDS011;6131;56.420;15.548;2023-06-26T13:27:49;2.78;;;2.13;;
12135;SDS011;6131;56.420;15.548;2023-06-26T13:30:15;3.13;;;2.20;;
12135;SDS011;6131;56.420;15.548;2023-06-26T13:32:41;3.65;;;2.10;;
12135;SDS011;6131;56.420;15.548;2023-06-26T13:35:07;2.50;;;2.22;;
12135;SDS011;6131;56.420;15.548;2023-06-26T13:37:36;2.90;;;2.35;;
12135;SDS011;6131;56.420;15.548;2023-06-26T13:40:02;5.68;;;2.15;;
12135;SDS011;6131;56.420;15.548;2023-06-26T13:42:33;3.80;;;2.47;;
12135;SDS011;6131;56.420;15.548;2023-06-26T13:45:00;2.85;;;2.28;;
12135;SDS011;6131;56.420;15.548;2023-06-26T13:47:26;3.85;;;2.30;;
12135;SDS011;6131;56.420;15.548;2023-06-26T13:49:52;3.35;;;2.80;;
12135;SDS011;6131;56.420;15.548;2023-06-26T13:52:18;3.80;;;2.50;;
12135;SDS011;6131;56.420;15.548;2023-06-26T13:54:44;3.95;;;2.10;;
12135;SDS011;6131;56.420;15.548;2023-06-26T13:57:11;2.38;;;2.00;;
12135;SDS011;6131;56.420;15.548;2023-06-26T13:59:37;2.63;;;2.10;;
12135;SDS011;6131;56.420;15.548;2023-06-26T14:02:07;3.22;;;2.15;;
12135;SDS011;6131;56.420;15.548;2023-06-26T14:04:33;2.88;;;2.20;;
12135;SDS011;6131;56.420;15.548;2023-06-26T14:06:59;2.20;;;2.00;;
12135;SDS011;6131;56.420;15.548;2023-06-26T14:09:25;2.60;;;2.40;;
12135;SDS011;6131;56.420;15.548;2023-06-26T14:11:51;3.30;;;2.30;;
12135;SDS011;6131;56.420;15.548;2023-06-26T14:14:17;3.88;;;2.35;;
12135;SDS011;6131;56.420;15.548;2023-06-26T14:16:43;2.95;;;2.22;;
12135;SDS011;6131;56.420;15.548;2023-06-26T14:19:09;3.40;;;2.70;;
12135;SDS011;6131;56.420;15.548;2023-06-26T14:21:39;2.70;;;2.40;;
12135;SDS011;6131;56.420;15.548;2023-06-26T14:24:05;2.92;;;2.13;;
12135;SDS011;6131;56.420;15.548;2023-06-26T14:26:31;2.72;;;2.30;;
12135;SDS011;6131;56.420;15.548;2023-06-26T14:28:58;5.43;;;2.30;;
12135;SDS011;6131;56.420;15.548;2023-06-26T14:31:25;2.78;;;2.30;;
12135;SDS011;6131;56.420;15.548;2023-06-26T14:33:51;2.50;;;2.30;;
12135;SDS011;6131;56.420;15.548;2023-06-26T14:36:17;3.20;;;2.30;;
12135;SDS011;6131;56.420;15.548;2023-06-26T14:38:44;2.67;;;2.28;;
12135;SDS011;6131;56.420;15.548;2023-06-26T14:41:09;2.50;;;2.20;;
12135;SDS011;6131;56.420;15.548;2023-06-26T14:43:35;2.78;;;2.10;;
12135;SDS011;6131;56.420;15.548;2023-06-26T14:46:02;2.90;;;2.50;;
12135;SDS011;6131;56.420;15.548;2023-06-26T14:48:27;3.35;;;2.40;;
12135;SDS011;6131;56.420;15.548;2023-06-26T14:50:53;3.70;;;2.30;;
12135;SDS011;6131;56.420;15.548;2023-06-26T14:53:20;2.85;;;2.13;;
12135;SDS011;6131;56.420;15.548;2023-06-26T14:55:46;3.17;;;1.90;;
12135;SDS011;6131;56.420;15.548;2023-06-26T14:58:12;2.35;;;1.98;;